sensor_id;sensor_type;location;lat;lon;timestamp;temperature;humidity
35635;DHT22;21757;43.610;1.440;2022-10-13T00:01:18;17.00;99.90
35635;DHT22;21757;43.610;1.440;2022-10-13T00:03:45;17.00;99.90
35635;DHT22;21757;43.610;1.440;2022-10-13T00:06:12;17.00;99.90
35635;DHT22;21757;43.610;1.440;2022-10-13T00:08:39;17.00;99.90
35635;DHT22;21757;43.610;1.440;2022-10-13T00:11:20;17.00;99.90
35635;DHT22;21757;43.610;1.440;2022-10-13T00:13:46;17.00;99.90
35635;DHT22;21757;43.610;1.440;2022-10-13T00:16:13;17.00;99.90
35635;DHT22;21757;43.610;1.440;2022-10-13T00:18:40;16.90;99.90
35635;DHT22;21757;43.610;1.440;2022-10-13T00:21:08;16.90;99.90
35635;DHT22;21757;43.610;1.440;2022-10-13T00:23:34;16.80;99.90
35635;DHT22;21757;43.610;1.440;2022-10-13T00:26:03;16.80;99.90
35635;DHT22;21757;43.610;1.440;2022-10-13T00:28:29;16.80;99.90
35635;DHT22;21757;43.610;1.440;2022-10-13T00:30:55;16.80;99.90
35635;DHT22;21757;43.610;1.440;2022-10-13T00:33:20;16.70;99.90
35635;DHT22;21757;43.610;1.440;2022-10-13T00:35:47;16.70;99.90
35635;DHT22;21757;43.610;1.440;2022-10-13T00:38:15;16.70;99.90
35635;DHT22;21757;43.610;1.440;2022-10-13T00:40:50;16.70;99.90
35635;DHT22;21757;43.610;1.440;2022-10-13T00:43:23;16.70;99.90
35635;DHT22;21757;43.610;1.440;2022-10-13T00:45:50;16.70;99.90
35635;DHT22;21757;43.610;1.440;2022-10-13T00:48:18;16.70;99.90
35635;DHT22;21757;43.610;1.440;2022-10-13T00:50:45;16.60;99.90
35635;DHT22;21757;43.610;1.440;2022-10-13T00:53:13;16.60;99.90
35635;DHT22;21757;43.610;1.440;2022-10-13T00:55:41;16.50;99.90
35635;DHT22;21757;43.610;1.440;2022-10-13T00:58:09;16.50;99.90
35635;DHT22;21757;43.610;1.440;2022-10-13T01:00:36;16.50;99.90
35635;DHT22;21757;43.610;1.440;2022-10-13T01:03:02;16.50;99.90
35635;DHT22;21757;43.610;1.440;2022-10-13T01:05:28;16.50;99.90
35635;DHT22;21757;43.610;1.440;2022-10-13T01:07:56;16.50;99.90
35635;DHT22;21757;43.610;1.440;2022-10-13T01:13:00;16.50;99.90
35635;DHT22;21757;43.610;1.440;2022-10-13T01:15:42;16.50;99.90
35635;DHT22;21757;43.610;1.440;2022-10-13T01:21:03;16.50;99.90
35635;DHT22;21757;43.610;1.440;2022-10-13T01:32:03;16.50;99.90
35635;DHT22;21757;43.610;1.440;2022-10-13T01:37:22;16.40;99.90
35635;DHT22;21757;43.610;1.440;2022-10-13T01:40:05;16.40;99.90
35635;DHT22;21757;43.610;1.440;2022-10-13T01:42:38;16.40;99.90
35635;DHT22;21757;43.610;1.440;2022-10-13T01:45:09;16.40;99.90
35635;DHT22;21757;43.610;1.440;2022-10-13T01:47:36;16.30;99.90
35635;DHT22;21757;43.610;1.440;2022-10-13T01:50:03;16.20;99.90
35635;DHT22;21757;43.610;1.440;2022-10-13T01:52:33;16.20;99.90
35635;DHT22;21757;43.610;1.440;2022-10-13T01:55:06;16.20;99.90
35635;DHT22;21757;43.610;1.440;2022-10-13T01:57:39;16.20;99.90
35635;DHT22;21757;43.610;1.440;2022-10-13T02:00:17;16.20;99.90
35635;DHT22;21757;43.610;1.440;2022-10-13T02:10:43;16.20;99.90
35635;DHT22;21757;43.610;1.440;2022-10-13T02:13:12;16.10;99.90
35635;DHT22;21757;43.610;1.440;2022-10-13T02:15:44;16.10;99.90
35635;DHT22;21757;43.610;1.440;2022-10-13T02:18:13;16.10;99.90
35635;DHT22;21757;43.610;1.440;2022-10-13T02:20:42;16.10;99.90
35635;DHT22;21757;43.610;1.440;2022-10-13T02:23:13;16.10;99.90
35635;DHT22;21757;43.610;1.440;2022-10-13T02:25:39;16.00;99.90
35635;DHT22;21757;43.610;1.440;2022-10-13T02:28:06;16.00;99.90
35635;DHT22;21757;43.610;1.440;2022-10-13T02:30:32;15.90;99.90
35635;DHT22;21757;43.610;1.440;2022-10-13T02:33:01;16.00;99.90
35635;DHT22;21757;43.610;1.440;2022-10-13T02:35:27;16.00;99.90
35635;DHT22;21757;43.610;1.440;2022-10-13T02:37:54;15.90;99.90
35635;DHT22;21757;43.610;1.440;2022-10-13T02:40:20;16.00;99.90
35635;DHT22;21757;43.610;1.440;2022-10-13T02:42:45;16.00;99.90
35635;DHT22;21757;43.610;1.440;2022-10-13T02:45:11;16.00;99.90
35635;DHT22;21757;43.610;1.440;2022-10-13T02:47:37;15.90;99.90
35635;DHT22;21757;43.610;1.440;2022-10-13T02:50:03;15.90;99.90
35635;DHT22;21757;43.610;1.440;2022-10-13T02:52:30;15.90;99.90
35635;DHT22;21757;43.610;1.440;2022-10-13T02:54:56;15.90;99.90
35635;DHT22;21757;43.610;1.440;2022-10-13T02:57:21;15.90;99.90
35635;DHT22;21757;43.610;1.440;2022-10-13T02:59:47;15.90;99.90
35635;DHT22;21757;43.610;1.440;2022-10-13T03:02:13;15.90;99.90
35635;DHT22;21757;43.610;1.440;2022-10-13T03:04:39;15.80;99.90
35635;DHT22;21757;43.610;1.440;2022-10-13T03:07:04;15.80;99.90
35635;DHT22;21757;43.610;1.440;2022-10-13T03:09:30;15.80;99.90
35635;DHT22;21757;43.610;1.440;2022-10-13T03:11:56;15.80;99.90
35635;DHT22;21757;43.610;1.440;2022-10-13T03:14:22;15.80;99.90
35635;DHT22;21757;43.610;1.440;2022-10-13T03:16:47;15.80;99.90
35635;DHT22;21757;43.610;1.440;2022-10-13T03:19:13;15.80;99.90
35635;DHT22;21757;43.610;1.440;2022-10-13T03:21:39;15.80;99.90
35635;DHT22;21757;43.610;1.440;2022-10-13T03:24:05;15.80;99.90
35635;DHT22;21757;43.610;1.440;2022-10-13T03:26:32;15.70;99.90
35635;DHT22;21757;43.610;1.440;2022-10-13T03:28:57;15.70;99.90
35635;DHT22;21757;43.610;1.440;2022-10-13T03:31:23;15.80;99.90
35635;DHT22;21757;43.610;1.440;2022-10-13T03:33:49;15.80;99.90
35635;DHT22;21757;43.610;1.440;2022-10-13T03:36:16;15.80;99.90
35635;DHT22;21757;43.610;1.440;2022-10-13T03:38:42;15.80;99.90
35635;DHT22;21757;43.610;1.440;2022-10-13T03:41:16;15.80;99.90
35635;DHT22;21757;43.610;1.440;2022-10-13T03:43:43;15.80;99.90
35635;DHT22;21757;43.610;1.440;2022-10-13T03:46:11;15.80;99.90
35635;DHT22;21757;43.610;1.440;2022-10-13T03:48:37;15.80;99.90
35635;DHT22;21757;43.610;1.440;2022-10-13T03:51:07;15.80;99.90
35635;DHT22;21757;43.610;1.440;2022-10-13T03:53:33;15.80;99.90
35635;DHT22;21757;43.610;1.440;2022-10-13T03:55:59;15.80;99.90
35635;DHT22;21757;43.610;1.440;2022-10-13T03:58:25;15.80;99.90
35635;DHT22;21757;43.610;1.440;2022-10-13T04:00:53;15.80;99.90
35635;DHT22;21757;43.610;1.440;2022-10-13T04:03:19;15.90;99.90
35635;DHT22;21757;43.610;1.440;2022-10-13T04:05:45;15.90;99.90
35635;DHT22;21757;43.610;1.440;2022-10-13T04:08:11;15.80;99.90
35635;DHT22;21757;43.610;1.440;2022-10-13T04:10:37;15.90;99.90
35635;DHT22;21757;43.610;1.440;2022-10-13T04:13:03;15.90;99.90
35635;DHT22;21757;43.610;1.440;2022-10-13T04:15:30;15.80;99.90
35635;DHT22;21757;43.610;1.440;2022-10-13T04:18:00;15.80;99.90
35635;DHT22;21757;43.610;1.440;2022-10-13T04:20:28;15.80;99.90
35635;DHT22;21757;43.610;1.440;2022-10-13T04:22:54;15.90;99.90
35635;DHT22;21757;43.610;1.440;2022-10-13T04:25:20;15.90;99.90
35635;DHT22;21757;43.610;1.440;2022-10-13T04:27:45;15.90;99.90
35635;DHT22;21757;43.610;1.440;2022-10-13T04:30:13;16.00;99.90
35635;DHT22;21757;43.610;1.440;2022-10-13T04:32:38;15.90;99.90
35635;DHT22;21757;43.610;1.440;2022-10-13T04:35:05;15.80;99.90
35635;DHT22;21757;43.610;1.440;2022-10-13T04:37:30;15.80;99.90
35635;DHT22;21757;43.610;1.440;2022-10-13T04:39:56;15.90;99.90
35635;DHT22;21757;43.610;1.440;2022-10-13T04:42:22;15.90;99.90
35635;DHT22;21757;43.610;1.440;2022-10-13T04:44:48;15.80;99.90
35635;DHT22;21757;43.610;1.440;2022-10-13T04:47:13;15.80;99.90
35635;DHT22;21757;43.610;1.440;2022-10-13T04:49:40;15.80;99.90
35635;DHT22;21757;43.610;1.440;2022-10-13T04:52:06;15.80;99.90
35635;DHT22;21757;43.610;1.440;2022-10-13T04:54:32;15.90;99.90
35635;DHT22;21757;43.610;1.440;2022-10-13T04:56:57;16.00;99.90
35635;DHT22;21757;43.610;1.440;2022-10-13T04:59:26;15.90;99.90
35635;DHT22;21757;43.610;1.440;2022-10-13T05:01:52;16.00;99.90
35635;DHT22;21757;43.610;1.440;2022-10-13T05:04:18;16.00;99.90
35635;DHT22;21757;43.610;1.440;2022-10-13T05:06:43;16.00;99.90
35635;DHT22;21757;43.610;1.440;2022-10-13T05:09:13;16.00;99.90
35635;DHT22;21757;43.610;1.440;2022-10-13T05:11:42;16.00;99.90
35635;DHT22;21757;43.610;1.440;2022-10-13T05:14:08;16.00;99.90
35635;DHT22;21757;43.610;1.440;2022-10-13T05:16:34;16.00;99.90
35635;DHT22;21757;43.610;1.440;2022-10-13T05:18:59;15.90;99.90
35635;DHT22;21757;43.610;1.440;2022-10-13T05:21:27;15.90;99.90
35635;DHT22;21757;43.610;1.440;2022-10-13T05:23:54;15.90;99.90
35635;DHT22;21757;43.610;1.440;2022-10-13T05:26:23;15.90;99.90
35635;DHT22;21757;43.610;1.440;2022-10-13T05:28:52;15.90;99.90
35635;DHT22;21757;43.610;1.440;2022-10-13T05:31:20;15.80;99.90
35635;DHT22;21757;43.610;1.440;2022-10-13T05:33:47;15.90;99.90
35635;DHT22;21757;43.610;1.440;2022-10-13T05:36:21;15.80;99.90
35635;DHT22;21757;43.610;1.440;2022-10-13T05:38:51;15.80;99.90
35635;DHT22;21757;43.610;1.440;2022-10-13T05:41:17;15.90;99.90
35635;DHT22;21757;43.610;1.440;2022-10-13T05:43:43;15.90;99.90
35635;DHT22;21757;43.610;1.440;2022-10-13T05:46:12;15.90;99.90
35635;DHT22;21757;43.610;1.440;2022-10-13T05:48:38;15.80;99.90
35635;DHT22;21757;43.610;1.440;2022-10-13T05:51:06;15.90;99.90
35635;DHT22;21757;43.610;1.440;2022-10-13T05:53:37;15.90;99.90
35635;DHT22;21757;43.610;1.440;2022-10-13T05:56:10;15.90;99.90
35635;DHT22;21757;43.610;1.440;2022-10-13T05:58:43;15.80;99.90
35635;DHT22;21757;43.610;1.440;2022-10-13T06:01:14;15.80;99.90
35635;DHT22;21757;43.610;1.440;2022-10-13T06:03:41;15.80;99.90
35635;DHT22;21757;43.610;1.440;2022-10-13T06:06:08;15.90;99.90
35635;DHT22;21757;43.610;1.440;2022-10-13T06:08:34;15.90;99.90
35635;DHT22;21757;43.610;1.440;2022-10-13T06:11:02;15.90;99.90
35635;DHT22;21757;43.610;1.440;2022-10-13T06:13:28;15.90;99.90
35635;DHT22;21757;43.610;1.440;2022-10-13T06:15:53;15.90;99.90
35635;DHT22;21757;43.610;1.440;2022-10-13T06:18:19;15.90;99.90
35635;DHT22;21757;43.610;1.440;2022-10-13T06:20:44;15.90;99.90
35635;DHT22;21757;43.610;1.440;2022-10-13T06:23:10;15.90;99.90
35635;DHT22;21757;43.610;1.440;2022-10-13T06:25:36;15.90;99.90
35635;DHT22;21757;43.610;1.440;2022-10-13T06:28:02;15.90;99.90
35635;DHT22;21757;43.610;1.440;2022-10-13T06:30:27;15.90;99.90
35635;DHT22;21757;43.610;1.440;2022-10-13T06:32:54;15.90;99.90
35635;DHT22;21757;43.610;1.440;2022-10-13T06:35:21;16.00;99.90
35635;DHT22;21757;43.610;1.440;2022-10-13T06:37:47;15.90;99.90
35635;DHT22;21757;43.610;1.440;2022-10-13T06:40:14;15.90;99.90
35635;DHT22;21757;43.610;1.440;2022-10-13T06:42:40;15.90;99.90
35635;DHT22;21757;43.610;1.440;2022-10-13T06:45:06;16.00;99.90
35635;DHT22;21757;43.610;1.440;2022-10-13T06:47:31;16.00;99.90
35635;DHT22;21757;43.610;1.440;2022-10-13T06:49:57;16.00;99.90
35635;DHT22;21757;43.610;1.440;2022-10-13T06:52:23;16.10;99.90
35635;DHT22;21757;43.610;1.440;2022-10-13T06:54:48;16.20;99.90
35635;DHT22;21757;43.610;1.440;2022-10-13T06:57:14;16.30;99.90
35635;DHT22;21757;43.610;1.440;2022-10-13T06:59:40;16.30;99.90
35635;DHT22;21757;43.610;1.440;2022-10-13T07:02:05;16.30;99.90
35635;DHT22;21757;43.610;1.440;2022-10-13T07:04:31;16.30;99.90
35635;DHT22;21757;43.610;1.440;2022-10-13T07:06:57;16.40;99.90
35635;DHT22;21757;43.610;1.440;2022-10-13T07:09:22;16.50;99.90
35635;DHT22;21757;43.610;1.440;2022-10-13T07:11:48;16.50;99.90
35635;DHT22;21757;43.610;1.440;2022-10-13T07:14:14;16.60;99.90
35635;DHT22;21757;43.610;1.440;2022-10-13T07:16:40;16.80;99.90
35635;DHT22;21757;43.610;1.440;2022-10-13T07:19:06;16.90;99.90
35635;DHT22;21757;43.610;1.440;2022-10-13T07:21:32;16.90;99.90
35635;DHT22;21757;43.610;1.440;2022-10-13T07:24:00;16.90;99.90
35635;DHT22;21757;43.610;1.440;2022-10-13T07:26:26;17.00;99.90
35635;DHT22;21757;43.610;1.440;2022-10-13T07:28:52;16.90;99.90
35635;DHT22;21757;43.610;1.440;2022-10-13T07:31:19;17.00;99.90
35635;DHT22;21757;43.610;1.440;2022-10-13T07:33:47;17.20;99.90
35635;DHT22;21757;43.610;1.440;2022-10-13T07:36:14;17.30;99.90
35635;DHT22;21757;43.610;1.440;2022-10-13T07:38:40;17.20;99.90
35635;DHT22;21757;43.610;1.440;2022-10-13T07:41:07;17.30;99.90
35635;DHT22;21757;43.610;1.440;2022-10-13T07:43:33;17.00;99.90
35635;DHT22;21757;43.610;1.440;2022-10-13T07:46:00;17.20;99.90
35635;DHT22;21757;43.610;1.440;2022-10-13T07:48:29;17.30;99.90
35635;DHT22;21757;43.610;1.440;2022-10-13T07:50:54;17.40;99.90
35635;DHT22;21757;43.610;1.440;2022-10-13T07:53:20;17.60;99.90
35635;DHT22;21757;43.610;1.440;2022-10-13T07:55:46;17.70;99.90
35635;DHT22;21757;43.610;1.440;2022-10-13T07:58:12;17.70;99.90
35635;DHT22;21757;43.610;1.440;2022-10-13T08:00:37;17.70;99.90
35635;DHT22;21757;43.610;1.440;2022-10-13T08:03:03;17.90;99.90
35635;DHT22;21757;43.610;1.440;2022-10-13T08:05:29;17.70;99.90
35635;DHT22;21757;43.610;1.440;2022-10-13T08:07:55;17.60;99.90
35635;DHT22;21757;43.610;1.440;2022-10-13T08:10:21;17.70;99.90
35635;DHT22;21757;43.610;1.440;2022-10-13T08:12:46;17.70;99.90
35635;DHT22;21757;43.610;1.440;2022-10-13T08:15:12;17.50;99.90
35635;DHT22;21757;43.610;1.440;2022-10-13T08:17:38;17.60;99.90
35635;DHT22;21757;43.610;1.440;2022-10-13T08:20:05;17.70;99.90
35635;DHT22;21757;43.610;1.440;2022-10-13T08:22:31;17.80;99.90
35635;DHT22;21757;43.610;1.440;2022-10-13T08:24:59;17.90;99.90
35635;DHT22;21757;43.610;1.440;2022-10-13T08:27:26;18.00;99.90
35635;DHT22;21757;43.610;1.440;2022-10-13T08:29:52;18.00;99.90
35635;DHT22;21757;43.610;1.440;2022-10-13T08:32:22;18.10;99.90
35635;DHT22;21757;43.610;1.440;2022-10-13T08:34:48;18.10;99.90
35635;DHT22;21757;43.610;1.440;2022-10-13T08:37:16;18.00;99.90
35635;DHT22;21757;43.610;1.440;2022-10-13T08:39:43;18.00;99.90
35635;DHT22;21757;43.610;1.440;2022-10-13T08:42:18;18.00;99.90
35635;DHT22;21757;43.610;1.440;2022-10-13T08:44:52;18.10;99.90
35635;DHT22;21757;43.610;1.440;2022-10-13T08:49:56;18.20;99.90
35635;DHT22;21757;43.610;1.440;2022-10-13T08:52:25;18.30;99.90
35635;DHT22;21757;43.610;1.440;2022-10-13T08:54:52;18.40;99.90
35635;DHT22;21757;43.610;1.440;2022-10-13T08:57:19;18.60;99.90
35635;DHT22;21757;43.610;1.440;2022-10-13T08:59:46;18.80;99.90
35635;DHT22;21757;43.610;1.440;2022-10-13T09:02:29;18.90;99.90
35635;DHT22;21757;43.610;1.440;2022-10-13T09:04:56;19.10;99.90
35635;DHT22;21757;43.610;1.440;2022-10-13T09:07:23;19.20;99.90
35635;DHT22;21757;43.610;1.440;2022-10-13T09:09:53;19.40;99.90
35635;DHT22;21757;43.610;1.440;2022-10-13T09:12:20;19.20;99.90
35635;DHT22;21757;43.610;1.440;2022-10-13T09:15:09;19.20;99.90
35635;DHT22;21757;43.610;1.440;2022-10-13T09:17:36;19.30;99.90
35635;DHT22;21757;43.610;1.440;2022-10-13T09:20:22;19.50;99.90
35635;DHT22;21757;43.610;1.440;2022-10-13T09:23:26;19.50;99.90
35635;DHT22;21757;43.610;1.440;2022-10-13T09:25:52;19.40;99.90
35635;DHT22;21757;43.610;1.440;2022-10-13T09:28:29;19.50;99.90
35635;DHT22;21757;43.610;1.440;2022-10-13T09:31:12;19.50;99.90
35635;DHT22;21757;43.610;1.440;2022-10-13T09:33:39;19.00;99.90
35635;DHT22;21757;43.610;1.440;2022-10-13T09:36:08;19.30;99.90
35635;DHT22;21757;43.610;1.440;2022-10-13T09:38:38;19.60;99.90
35635;DHT22;21757;43.610;1.440;2022-10-13T09:41:12;19.70;99.90
35635;DHT22;21757;43.610;1.440;2022-10-13T09:49:06;19.70;99.90
35635;DHT22;21757;43.610;1.440;2022-10-13T09:51:42;19.80;99.90
35635;DHT22;21757;43.610;1.440;2022-10-13T09:57:04;19.70;99.90
35635;DHT22;21757;43.610;1.440;2022-10-13T09:59:37;19.70;99.90
35635;DHT22;21757;43.610;1.440;2022-10-13T10:05:20;19.40;99.90
35635;DHT22;21757;43.610;1.440;2022-10-13T10:07:47;19.30;99.90
35635;DHT22;21757;43.610;1.440;2022-10-13T10:10:33;19.20;99.90
35635;DHT22;21757;43.610;1.440;2022-10-13T10:13:00;18.90;99.90
35635;DHT22;21757;43.610;1.440;2022-10-13T10:18:23;19.20;99.90
35635;DHT22;21757;43.610;1.440;2022-10-13T10:20:59;19.70;99.90
35635;DHT22;21757;43.610;1.440;2022-10-13T10:26:21;20.20;99.90
35635;DHT22;21757;43.610;1.440;2022-10-13T10:29:11;20.10;99.90
35635;DHT22;21757;43.610;1.440;2022-10-13T10:39:48;20.70;99.90
35635;DHT22;21757;43.610;1.440;2022-10-13T10:42:41;20.70;99.90
35635;DHT22;21757;43.610;1.440;2022-10-13T10:45:16;20.70;99.90
35635;DHT22;21757;43.610;1.440;2022-10-13T10:47:45;20.70;99.90
35635;DHT22;21757;43.610;1.440;2022-10-13T10:50:16;20.70;99.90
35635;DHT22;21757;43.610;1.440;2022-10-13T11:00:27;20.20;99.90
35635;DHT22;21757;43.610;1.440;2022-10-13T11:05:20;20.10;99.90
35635;DHT22;21757;43.610;1.440;2022-10-13T11:12:47;20.30;99.90
35635;DHT22;21757;43.610;1.440;2022-10-13T11:15:22;20.30;99.90
35635;DHT22;21757;43.610;1.440;2022-10-13T11:17:49;20.50;99.90
35635;DHT22;21757;43.610;1.440;2022-10-13T11:25:34;20.70;99.90
35635;DHT22;21757;43.610;1.440;2022-10-13T11:36:27;20.80;99.90
35635;DHT22;21757;43.610;1.440;2022-10-13T11:52:59;21.70;99.90
35635;DHT22;21757;43.610;1.440;2022-10-13T11:55:37;21.80;99.90
35635;DHT22;21757;43.610;1.440;2022-10-13T12:00:34;21.80;99.90
35635;DHT22;21757;43.610;1.440;2022-10-13T12:02:59;21.70;99.90
35635;DHT22;21757;43.610;1.440;2022-10-13T12:05:27;21.90;99.90
35635;DHT22;21757;43.610;1.440;2022-10-13T12:07:56;21.80;99.90
35635;DHT22;21757;43.610;1.440;2022-10-13T12:10:31;21.50;99.90
35635;DHT22;21757;43.610;1.440;2022-10-13T12:12:59;21.70;99.90
35635;DHT22;21757;43.610;1.440;2022-10-13T12:15:34;21.80;99.90
35635;DHT22;21757;43.610;1.440;2022-10-13T12:18:15;22.10;99.90
35635;DHT22;21757;43.610;1.440;2022-10-13T12:20:50;22.30;99.90
35635;DHT22;21757;43.610;1.440;2022-10-13T12:23:16;22.70;99.90
35635;DHT22;21757;43.610;1.440;2022-10-13T12:25:47;22.70;99.90
35635;DHT22;21757;43.610;1.440;2022-10-13T12:28:19;22.60;99.90
35635;DHT22;21757;43.610;1.440;2022-10-13T12:30:59;22.40;99.90
35635;DHT22;21757;43.610;1.440;2022-10-13T12:33:32;22.50;99.90
35635;DHT22;21757;43.610;1.440;2022-10-13T12:36:16;22.40;99.90
35635;DHT22;21757;43.610;1.440;2022-10-13T12:38:48;22.30;99.90
35635;DHT22;21757;43.610;1.440;2022-10-13T12:41:18;22.60;99.90
35635;DHT22;21757;43.610;1.440;2022-10-13T12:43:47;22.50;99.90
35635;DHT22;21757;43.610;1.440;2022-10-13T12:46:35;22.70;99.90
35635;DHT22;21757;43.610;1.440;2022-10-13T12:51:45;23.40;99.90
35635;DHT22;21757;43.610;1.440;2022-10-13T12:54:21;23.30;99.90
35635;DHT22;21757;43.610;1.440;2022-10-13T12:56:50;23.30;99.90
35635;DHT22;21757;43.610;1.440;2022-10-13T12:59:18;23.20;99.90
35635;DHT22;21757;43.610;1.440;2022-10-13T13:01:44;23.30;99.90
35635;DHT22;21757;43.610;1.440;2022-10-13T13:07:00;23.60;99.90
35635;DHT22;21757;43.610;1.440;2022-10-13T13:09:33;23.70;99.90
35635;DHT22;21757;43.610;1.440;2022-10-13T13:14:43;23.70;99.90
35635;DHT22;21757;43.610;1.440;2022-10-13T13:19:48;23.70;99.90
35635;DHT22;21757;43.610;1.440;2022-10-13T13:22:15;23.70;99.90
35635;DHT22;21757;43.610;1.440;2022-10-13T13:24:41;23.50;99.90
35635;DHT22;21757;43.610;1.440;2022-10-13T13:27:26;23.40;99.90
35635;DHT22;21757;43.610;1.440;2022-10-13T13:29:53;23.30;99.90
35635;DHT22;21757;43.610;1.440;2022-10-13T13:32:21;23.30;99.90
35635;DHT22;21757;43.610;1.440;2022-10-13T13:34:48;23.40;99.90
35635;DHT22;21757;43.610;1.440;2022-10-13T13:37:29;23.40;99.90
35635;DHT22;21757;43.610;1.440;2022-10-13T13:39:56;23.50;99.90
35635;DHT22;21757;43.610;1.440;2022-10-13T13:42:22;23.40;99.90
35635;DHT22;21757;43.610;1.440;2022-10-13T13:44:48;23.30;99.90
35635;DHT22;21757;43.610;1.440;2022-10-13T13:47:16;23.10;99.90
35635;DHT22;21757;43.610;1.440;2022-10-13T13:49:42;22.80;99.90
35635;DHT22;21757;43.610;1.440;2022-10-13T13:52:08;22.80;99.90
35635;DHT22;21757;43.610;1.440;2022-10-13T13:54:34;22.70;99.90
35635;DHT22;21757;43.610;1.440;2022-10-13T13:56:59;22.70;99.90
35635;DHT22;21757;43.610;1.440;2022-10-13T13:59:25;22.70;99.90
35635;DHT22;21757;43.610;1.440;2022-10-13T14:01:51;22.50;99.90
35635;DHT22;21757;43.610;1.440;2022-10-13T14:04:16;22.50;99.90
35635;DHT22;21757;43.610;1.440;2022-10-13T14:06:43;22.60;99.90
35635;DHT22;21757;43.610;1.440;2022-10-13T14:09:09;22.70;99.90
35635;DHT22;21757;43.610;1.440;2022-10-13T14:11:34;22.80;99.90
35635;DHT22;21757;43.610;1.440;2022-10-13T14:14:00;22.80;99.90
35635;DHT22;21757;43.610;1.440;2022-10-13T14:16:27;22.80;99.90
35635;DHT22;21757;43.610;1.440;2022-10-13T14:18:55;22.80;99.90
35635;DHT22;21757;43.610;1.440;2022-10-13T14:21:21;22.90;99.90
35635;DHT22;21757;43.610;1.440;2022-10-13T14:23:47;22.90;99.90
35635;DHT22;21757;43.610;1.440;2022-10-13T14:26:13;23.00;99.90
35635;DHT22;21757;43.610;1.440;2022-10-13T14:28:43;23.10;99.90
35635;DHT22;21757;43.610;1.440;2022-10-13T14:31:09;23.10;99.90
35635;DHT22;21757;43.610;1.440;2022-10-13T14:33:35;23.10;99.90
35635;DHT22;21757;43.610;1.440;2022-10-13T14:36:03;23.10;99.90
35635;DHT22;21757;43.610;1.440;2022-10-13T14:38:30;23.10;99.90
35635;DHT22;21757;43.610;1.440;2022-10-13T14:40:59;23.10;99.90
35635;DHT22;21757;43.610;1.440;2022-10-13T14:43:26;23.10;99.90
35635;DHT22;21757;43.610;1.440;2022-10-13T14:45:52;23.10;99.90
35635;DHT22;21757;43.610;1.440;2022-10-13T14:48:18;23.20;99.90
35635;DHT22;21757;43.610;1.440;2022-10-13T14:50:44;23.20;99.90
35635;DHT22;21757;43.610;1.440;2022-10-13T14:53:10;23.20;99.90
35635;DHT22;21757;43.610;1.440;2022-10-13T14:55:43;23.10;99.90
35635;DHT22;21757;43.610;1.440;2022-10-13T14:58:10;23.20;99.90
35635;DHT22;21757;43.610;1.440;2022-10-13T15:00:37;23.10;99.90
35635;DHT22;21757;43.610;1.440;2022-10-13T15:03:03;22.90;99.90
35635;DHT22;21757;43.610;1.440;2022-10-13T15:05:29;22.90;99.90
35635;DHT22;21757;43.610;1.440;2022-10-13T15:07:55;22.90;99.90
35635;DHT22;21757;43.610;1.440;2022-10-13T15:10:21;22.90;99.90
35635;DHT22;21757;43.610;1.440;2022-10-13T15:12:47;23.00;99.90
35635;DHT22;21757;43.610;1.440;2022-10-13T15:15:12;22.90;99.90
35635;DHT22;21757;43.610;1.440;2022-10-13T15:17:38;23.00;99.90
35635;DHT22;21757;43.610;1.440;2022-10-13T15:20:05;23.00;99.90
35635;DHT22;21757;43.610;1.440;2022-10-13T15:22:31;22.80;99.90
35635;DHT22;21757;43.610;1.440;2022-10-13T15:24:56;22.60;99.90
35635;DHT22;21757;43.610;1.440;2022-10-13T15:27:22;22.60;99.90
35635;DHT22;21757;43.610;1.440;2022-10-13T15:29:48;22.50;99.90
35635;DHT22;21757;43.610;1.440;2022-10-13T15:32:16;22.50;99.90
35635;DHT22;21757;43.610;1.440;2022-10-13T15:34:43;22.50;99.90
35635;DHT22;21757;43.610;1.440;2022-10-13T15:37:10;22.40;99.90
35635;DHT22;21757;43.610;1.440;2022-10-13T15:39:36;22.50;99.90
35635;DHT22;21757;43.610;1.440;2022-10-13T15:42:03;22.40;99.90
35635;DHT22;21757;43.610;1.440;2022-10-13T15:44:30;22.40;99.90
35635;DHT22;21757;43.610;1.440;2022-10-13T15:46:56;22.50;99.90
35635;DHT22;21757;43.610;1.440;2022-10-13T15:49:23;22.40;99.90
35635;DHT22;21757;43.610;1.440;2022-10-13T15:51:50;22.40;99.90
35635;DHT22;21757;43.610;1.440;2022-10-13T15:54:16;22.40;99.90
35635;DHT22;21757;43.610;1.440;2022-10-13T15:56:42;22.40;99.90
35635;DHT22;21757;43.610;1.440;2022-10-13T15:59:08;22.30;99.90
35635;DHT22;21757;43.610;1.440;2022-10-13T16:01:34;22.30;99.90
35635;DHT22;21757;43.610;1.440;2022-10-13T16:04:00;22.30;99.90
35635;DHT22;21757;43.610;1.440;2022-10-13T16:06:25;22.30;99.90
35635;DHT22;21757;43.610;1.440;2022-10-13T16:08:51;22.30;99.90
35635;DHT22;21757;43.610;1.440;2022-10-13T16:11:20;22.30;99.90
35635;DHT22;21757;43.610;1.440;2022-10-13T16:13:48;22.20;99.90
35635;DHT22;21757;43.610;1.440;2022-10-13T16:16:14;22.20;99.90
35635;DHT22;21757;43.610;1.440;2022-10-13T16:18:41;22.20;99.90
35635;DHT22;21757;43.610;1.440;2022-10-13T16:21:16;22.20;99.90
35635;DHT22;21757;43.610;1.440;2022-10-13T16:23:42;22.10;99.90
35635;DHT22;21757;43.610;1.440;2022-10-13T16:26:08;22.10;99.90
35635;DHT22;21757;43.610;1.440;2022-10-13T16:28:35;22.10;99.90
35635;DHT22;21757;43.610;1.440;2022-10-13T16:31:05;22.00;99.90
35635;DHT22;21757;43.610;1.440;2022-10-13T16:33:35;22.00;99.90
35635;DHT22;21757;43.610;1.440;2022-10-13T16:36:03;22.00;99.90
35635;DHT22;21757;43.610;1.440;2022-10-13T16:38:30;22.00;99.90
35635;DHT22;21757;43.610;1.440;2022-10-13T16:40:56;21.90;99.90
35635;DHT22;21757;43.610;1.440;2022-10-13T16:43:23;21.90;99.90
35635;DHT22;21757;43.610;1.440;2022-10-13T16:45:56;21.90;99.90
35635;DHT22;21757;43.610;1.440;2022-10-13T16:48:22;21.80;99.90
35635;DHT22;21757;43.610;1.440;2022-10-13T16:50:48;21.80;99.90
35635;DHT22;21757;43.610;1.440;2022-10-13T16:53:17;21.80;99.90
35635;DHT22;21757;43.610;1.440;2022-10-13T16:55:43;21.70;99.90
35635;DHT22;21757;43.610;1.440;2022-10-13T16:58:09;21.70;99.90
35635;DHT22;21757;43.610;1.440;2022-10-13T17:00:36;21.70;99.90
35635;DHT22;21757;43.610;1.440;2022-10-13T17:03:02;21.60;99.90
35635;DHT22;21757;43.610;1.440;2022-10-13T17:05:28;21.60;99.90
35635;DHT22;21757;43.610;1.440;2022-10-13T17:07:53;21.60;99.90
35635;DHT22;21757;43.610;1.440;2022-10-13T17:10:19;21.60;99.90
35635;DHT22;21757;43.610;1.440;2022-10-13T17:12:45;21.50;99.90
35635;DHT22;21757;43.610;1.440;2022-10-13T17:15:11;21.50;99.90
35635;DHT22;21757;43.610;1.440;2022-10-13T17:17:37;21.50;99.90
35635;DHT22;21757;43.610;1.440;2022-10-13T17:20:03;21.40;99.90
35635;DHT22;21757;43.610;1.440;2022-10-13T17:22:29;21.40;99.90
35635;DHT22;21757;43.610;1.440;2022-10-13T17:24:54;21.40;99.90